sensor_id;sensor_type;location;lat;lon;timestamp;P1;durP1;ratioP1;P2;durP2;ratioP2
19794;SDS011;10057;59.402;17.866;2022-11-20T00:01:22;3.53;;;1.40;;
19794;SDS011;10057;59.402;17.866;2022-11-20T00:03:52;3.27;;;1.47;;
19794;SDS011;10057;59.402;17.866;2022-11-20T00:06:20;1.87;;;1.10;;
19794;SDS011;10057;59.402;17.866;2022-11-20T00:08:48;3.00;;;1.40;;
19794;SDS011;10057;59.402;17.866;2022-11-20T00:11:16;2.67;;;1.33;;
19794;SDS011;10057;59.402;17.866;2022-11-20T00:13:47;2.93;;;1.30;;
19794;SDS011;10057;59.402;17.866;2022-11-20T00:16:17;5.53;;;1.47;;
19794;SDS011;10057;59.402;17.866;2022-11-20T00:18:46;2.13;;;1.33;;
19794;SDS011;10057;59.402;17.866;2022-11-20T00:21:17;2.43;;;1.20;;
19794;SDS011;10057;59.402;17.866;2022-11-20T00:23:47;3.90;;;1.57;;
19794;SDS011;10057;59.402;17.866;2022-11-20T00:26:15;2.40;;;1.23;;
19794;SDS011;10057;59.402;17.866;2022-11-20T00:28:49;5.07;;;1.00;;
19794;SDS011;10057;59.402;17.866;2022-11-20T00:31:20;2.00;;;1.20;;
19794;SDS011;10057;59.402;17.866;2022-11-20T00:33:47;2.03;;;1.27;;
19794;SDS011;10057;59.402;17.866;2022-11-20T00:36:15;2.70;;;1.33;;
19794;SDS011;10057;59.402;17.866;2022-11-20T00:38:55;2.17;;;1.20;;
19794;SDS011;10057;59.402;17.866;2022-11-20T00:41:26;2.80;;;1.40;;
19794;SDS011;10057;59.402;17.866;2022-11-20T00:43:56;2.07;;;1.20;;
19794;SDS011;10057;59.402;17.866;2022-11-20T00:46:26;3.43;;;1.13;;
19794;SDS011;10057;59.402;17.866;2022-11-20T00:48:57;2.80;;;1.00;;
19794;SDS011;10057;59.402;17.866;2022-11-20T00:51:33;1.47;;;1.00;;
19794;SDS011;10057;59.402;17.866;2022-11-20T00:54:00;3.10;;;1.30;;
19794;SDS011;10057;59.402;17.866;2022-11-20T00:56:28;10.40;;;1.30;;
19794;SDS011;10057;59.402;17.866;2022-11-20T00:58:55;1.73;;;0.80;;
19794;SDS011;10057;59.402;17.866;2022-11-20T01:01:23;1.23;;;0.83;;
19794;SDS011;10057;59.402;17.866;2022-11-20T01:03:52;2.40;;;1.30;;
19794;SDS011;10057;59.402;17.866;2022-11-20T01:06:24;2.10;;;1.20;;
19794;SDS011;10057;59.402;17.866;2022-11-20T01:08:53;3.77;;;1.03;;
19794;SDS011;10057;59.402;17.866;2022-11-20T01:11:25;2.83;;;1.20;;
19794;SDS011;10057;59.402;17.866;2022-11-20T01:13:54;1.67;;;1.10;;
19794;SDS011;10057;59.402;17.866;2022-11-20T01:16:27;3.57;;;1.43;;
19794;SDS011;10057;59.402;17.866;2022-11-20T01:18:56;2.33;;;1.00;;
19794;SDS011;10057;59.402;17.866;2022-11-20T01:21:27;2.53;;;1.30;;
19794;SDS011;10057;59.402;17.866;2022-11-20T01:24:02;1.70;;;1.00;;
19794;SDS011;10057;59.402;17.866;2022-11-20T01:26:34;3.47;;;1.30;;
19794;SDS011;10057;59.402;17.866;2022-11-20T01:29:02;5.17;;;1.30;;
19794;SDS011;10057;59.402;17.866;2022-11-20T01:31:31;1.57;;;0.97;;
19794;SDS011;10057;59.402;17.866;2022-11-20T01:34:00;2.43;;;1.20;;
19794;SDS011;10057;59.402;17.866;2022-11-20T01:36:28;2.23;;;1.20;;
19794;SDS011;10057;59.402;17.866;2022-11-20T01:38:57;2.13;;;1.23;;
19794;SDS011;10057;59.402;17.866;2022-11-20T01:41:25;6.47;;;1.33;;
19794;SDS011;10057;59.402;17.866;2022-11-20T01:44:18;3.10;;;1.20;;
19794;SDS011;10057;59.402;17.866;2022-11-20T01:46:52;1.97;;;1.10;;
19794;SDS011;10057;59.402;17.866;2022-11-20T01:49:24;1.93;;;1.00;;
19794;SDS011;10057;59.402;17.866;2022-11-20T01:52:02;2.50;;;1.30;;
19794;SDS011;10057;59.402;17.866;2022-11-20T01:54:35;6.53;;;1.50;;
19794;SDS011;10057;59.402;17.866;2022-11-20T01:57:07;2.20;;;1.10;;
19794;SDS011;10057;59.402;17.866;2022-11-20T01:59:39;2.17;;;1.23;;
19794;SDS011;10057;59.402;17.866;2022-11-20T02:02:11;3.43;;;1.13;;
19794;SDS011;10057;59.402;17.866;2022-11-20T02:04:37;1.60;;;1.00;;
19794;SDS011;10057;59.402;17.866;2022-11-20T02:07:09;3.07;;;1.40;;
19794;SDS011;10057;59.402;17.866;2022-11-20T02:09:37;2.40;;;1.20;;
19794;SDS011;10057;59.402;17.866;2022-11-20T02:12:05;3.53;;;1.10;;
19794;SDS011;10057;59.402;17.866;2022-11-20T02:14:52;2.87;;;0.90;;
19794;SDS011;10057;59.402;17.866;2022-11-20T02:17:19;4.60;;;1.20;;
19794;SDS011;10057;59.402;17.866;2022-11-20T02:19:46;1.40;;;1.00;;
19794;SDS011;10057;59.402;17.866;2022-11-20T02:22:25;2.13;;;1.10;;
19794;SDS011;10057;59.402;17.866;2022-11-20T02:24:58;2.17;;;0.80;;
19794;SDS011;10057;59.402;17.866;2022-11-20T02:27:28;2.03;;;1.00;;
19794;SDS011;10057;59.402;17.866;2022-11-20T02:32:33;2.07;;;1.20;;
19794;SDS011;10057;59.402;17.866;2022-11-20T02:37:44;1.87;;;1.13;;
19794;SDS011;10057;59.402;17.866;2022-11-20T02:40:15;2.10;;;1.00;;
19794;SDS011;10057;59.402;17.866;2022-11-20T02:42:42;2.20;;;1.23;;
19794;SDS011;10057;59.402;17.866;2022-11-20T02:45:08;1.53;;;0.93;;
19794;SDS011;10057;59.402;17.866;2022-11-20T02:47:35;1.67;;;1.03;;
19794;SDS011;10057;59.402;17.866;2022-11-20T02:50:05;1.10;;;0.83;;
19794;SDS011;10057;59.402;17.866;2022-11-20T02:52:32;2.27;;;0.90;;
19794;SDS011;10057;59.402;17.866;2022-11-20T02:54:59;1.83;;;0.80;;
19794;SDS011;10057;59.402;17.866;2022-11-20T02:57:25;2.43;;;1.03;;
19794;SDS011;10057;59.402;17.866;2022-11-20T02:59:52;1.67;;;1.00;;
19794;SDS011;10057;59.402;17.866;2022-11-20T03:02:18;1.30;;;0.90;;
19794;SDS011;10057;59.402;17.866;2022-11-20T03:04:45;1.40;;;0.90;;
19794;SDS011;10057;59.402;17.866;2022-11-20T03:07:12;2.00;;;0.80;;
19794;SDS011;10057;59.402;17.866;2022-11-20T03:09:39;4.30;;;1.13;;
19794;SDS011;10057;59.402;17.866;2022-11-20T03:12:05;1.10;;;0.90;;
19794;SDS011;10057;59.402;17.866;2022-11-20T03:14:32;1.63;;;0.93;;
19794;SDS011;10057;59.402;17.866;2022-11-20T03:16:59;3.70;;;0.93;;
19794;SDS011;10057;59.402;17.866;2022-11-20T03:19:25;1.27;;;0.77;;
19794;SDS011;10057;59.402;17.866;2022-11-20T03:21:52;3.00;;;1.00;;
19794;SDS011;10057;59.402;17.866;2022-11-20T03:24:19;2.00;;;1.07;;
19794;SDS011;10057;59.402;17.866;2022-11-20T03:26:45;1.57;;;1.03;;
19794;SDS011;10057;59.402;17.866;2022-11-20T03:29:12;3.07;;;0.80;;
19794;SDS011;10057;59.402;17.866;2022-11-20T03:31:39;1.60;;;1.00;;
19794;SDS011;10057;59.402;17.866;2022-11-20T03:34:07;1.93;;;1.03;;
19794;SDS011;10057;59.402;17.866;2022-11-20T03:36:36;1.57;;;0.90;;
19794;SDS011;10057;59.402;17.866;2022-11-20T03:39:07;4.77;;;1.00;;
19794;SDS011;10057;59.402;17.866;2022-11-20T03:41:38;1.07;;;0.87;;
19794;SDS011;10057;59.402;17.866;2022-11-20T03:44:07;1.43;;;0.80;;
19794;SDS011;10057;59.402;17.866;2022-11-20T03:46:35;1.50;;;0.70;;
19794;SDS011;10057;59.402;17.866;2022-11-20T03:49:03;1.13;;;0.80;;
19794;SDS011;10057;59.402;17.866;2022-11-20T03:51:30;2.20;;;1.20;;
19794;SDS011;10057;59.402;17.866;2022-11-20T03:53:59;1.20;;;0.73;;
19794;SDS011;10057;59.402;17.866;2022-11-20T03:56:31;1.63;;;0.93;;
19794;SDS011;10057;59.402;17.866;2022-11-20T03:59:00;1.53;;;0.90;;
19794;SDS011;10057;59.402;17.866;2022-11-20T04:01:29;2.20;;;1.10;;
19794;SDS011;10057;59.402;17.866;2022-11-20T04:03:57;1.83;;;1.03;;
19794;SDS011;10057;59.402;17.866;2022-11-20T04:06:33;2.80;;;1.30;;
19794;SDS011;10057;59.402;17.866;2022-11-20T04:09:01;2.00;;;1.20;;
19794;SDS011;10057;59.402;17.866;2022-11-20T04:11:29;1.90;;;1.20;;
19794;SDS011;10057;59.402;17.866;2022-11-20T04:13:58;1.80;;;1.23;;
19794;SDS011;10057;59.402;17.866;2022-11-20T04:16:26;1.87;;;1.13;;
19794;SDS011;10057;59.402;17.866;2022-11-20T04:18:56;4.77;;;1.20;;
19794;SDS011;10057;59.402;17.866;2022-11-20T04:21:24;2.17;;;1.10;;
19794;SDS011;10057;59.402;17.866;2022-11-20T04:23:52;2.20;;;1.20;;
19794;SDS011;10057;59.402;17.866;2022-11-20T04:26:20;2.40;;;1.23;;
19794;SDS011;10057;59.402;17.866;2022-11-20T04:28:48;1.70;;;1.10;;
19794;SDS011;10057;59.402;17.866;2022-11-20T04:31:15;1.97;;;1.10;;
19794;SDS011;10057;59.402;17.866;2022-11-20T04:33:44;1.93;;;1.10;;
19794;SDS011;10057;59.402;17.866;2022-11-20T04:36:12;2.30;;;1.10;;
19794;SDS011;10057;59.402;17.866;2022-11-20T04:38:41;2.20;;;1.00;;
19794;SDS011;10057;59.402;17.866;2022-11-20T04:41:09;0.83;;;0.60;;
19794;SDS011;10057;59.402;17.866;2022-11-20T04:43:40;1.13;;;0.60;;
19794;SDS011;10057;59.402;17.866;2022-11-20T04:46:07;1.27;;;0.60;;
19794;SDS011;10057;59.402;17.866;2022-11-20T04:48:34;1.40;;;0.90;;
19794;SDS011;10057;59.402;17.866;2022-11-20T04:51:04;1.47;;;0.73;;
19794;SDS011;10057;59.402;17.866;2022-11-20T04:53:31;1.37;;;0.70;;
19794;SDS011;10057;59.402;17.866;2022-11-20T04:56:01;1.77;;;1.00;;
19794;SDS011;10057;59.402;17.866;2022-11-20T04:58:29;1.87;;;0.90;;
19794;SDS011;10057;59.402;17.866;2022-11-20T05:01:03;1.10;;;0.90;;
19794;SDS011;10057;59.402;17.866;2022-11-20T05:03:35;2.47;;;0.70;;
19794;SDS011;10057;59.402;17.866;2022-11-20T05:06:08;2.80;;;1.10;;
19794;SDS011;10057;59.402;17.866;2022-11-20T05:08:37;1.43;;;0.80;;
19794;SDS011;10057;59.402;17.866;2022-11-20T05:11:05;1.27;;;0.80;;
19794;SDS011;10057;59.402;17.866;2022-11-20T05:13:36;1.17;;;0.80;;
19794;SDS011;10057;59.402;17.866;2022-11-20T05:16:04;1.23;;;0.80;;
19794;SDS011;10057;59.402;17.866;2022-11-20T05:18:37;2.67;;;1.20;;
19794;SDS011;10057;59.402;17.866;2022-11-20T05:21:06;1.77;;;0.77;;
19794;SDS011;10057;59.402;17.866;2022-11-20T05:23:34;1.57;;;0.93;;
19794;SDS011;10057;59.402;17.866;2022-11-20T05:26:02;1.87;;;0.80;;
19794;SDS011;10057;59.402;17.866;2022-11-20T05:28:29;0.80;;;0.60;;
19794;SDS011;10057;59.402;17.866;2022-11-20T05:31:03;3.80;;;1.10;;
19794;SDS011;10057;59.402;17.866;2022-11-20T05:33:53;1.03;;;0.60;;
19794;SDS011;10057;59.402;17.866;2022-11-20T05:36:22;0.93;;;0.70;;
19794;SDS011;10057;59.402;17.866;2022-11-20T05:38:48;9.47;;;0.93;;
19794;SDS011;10057;59.402;17.866;2022-11-20T05:41:17;1.13;;;0.70;;
19794;SDS011;10057;59.402;17.866;2022-11-20T05:43:45;1.23;;;0.80;;
19794;SDS011;10057;59.402;17.866;2022-11-20T05:46:14;4.50;;;0.83;;
19794;SDS011;10057;59.402;17.866;2022-11-20T05:48:43;2.73;;;1.10;;
19794;SDS011;10057;59.402;17.866;2022-11-20T05:51:11;1.20;;;0.60;;
19794;SDS011;10057;59.402;17.866;2022-11-20T05:53:39;2.47;;;1.00;;
19794;SDS011;10057;59.402;17.866;2022-11-20T05:56:15;3.30;;;1.00;;
19794;SDS011;10057;59.402;17.866;2022-11-20T05:58:47;1.30;;;0.70;;
19794;SDS011;10057;59.402;17.866;2022-11-20T06:01:24;1.67;;;0.93;;
19794;SDS011;10057;59.402;17.866;2022-11-20T06:03:52;1.77;;;1.00;;
19794;SDS011;10057;59.402;17.866;2022-11-20T06:06:19;1.30;;;0.90;;
19794;SDS011;10057;59.402;17.866;2022-11-20T06:08:46;1.53;;;0.80;;
19794;SDS011;10057;59.402;17.866;2022-11-20T06:11:14;1.77;;;1.00;;
19794;SDS011;10057;59.402;17.866;2022-11-20T06:13:42;1.23;;;0.87;;
19794;SDS011;10057;59.402;17.866;2022-11-20T06:16:09;1.00;;;0.50;;
19794;SDS011;10057;59.402;17.866;2022-11-20T06:18:37;1.57;;;0.80;;
19794;SDS011;10057;59.402;17.866;2022-11-20T06:21:11;2.57;;;0.80;;
19794;SDS011;10057;59.402;17.866;2022-11-20T06:23:40;1.30;;;0.70;;
19794;SDS011;10057;59.402;17.866;2022-11-20T06:26:07;1.47;;;0.90;;
19794;SDS011;10057;59.402;17.866;2022-11-20T06:28:45;1.37;;;0.70;;
19794;SDS011;10057;59.402;17.866;2022-11-20T06:31:13;2.53;;;0.90;;
19794;SDS011;10057;59.402;17.866;2022-11-20T06:33:41;0.90;;;0.63;;
19794;SDS011;10057;59.402;17.866;2022-11-20T06:36:09;4.13;;;0.77;;
19794;SDS011;10057;59.402;17.866;2022-11-20T06:38:37;1.60;;;0.70;;
19794;SDS011;10057;59.402;17.866;2022-11-20T06:41:05;1.70;;;0.80;;
19794;SDS011;10057;59.402;17.866;2022-11-20T06:43:33;1.13;;;0.60;;
19794;SDS011;10057;59.402;17.866;2022-11-20T06:46:00;1.43;;;0.80;;
19794;SDS011;10057;59.402;17.866;2022-11-20T06:48:27;1.17;;;0.70;;
19794;SDS011;10057;59.402;17.866;2022-11-20T06:50:54;1.30;;;0.70;;
19794;SDS011;10057;59.402;17.866;2022-11-20T06:53:22;0.87;;;0.60;;
19794;SDS011;10057;59.402;17.866;2022-11-20T06:55:50;1.57;;;0.70;;
19794;SDS011;10057;59.402;17.866;2022-11-20T06:58:17;1.37;;;0.60;;
19794;SDS011;10057;59.402;17.866;2022-11-20T07:00:44;1.63;;;0.90;;
19794;SDS011;10057;59.402;17.866;2022-11-20T07:03:11;1.10;;;0.80;;
19794;SDS011;10057;59.402;17.866;2022-11-20T07:05:38;1.33;;;0.70;;
19794;SDS011;10057;59.402;17.866;2022-11-20T07:08:08;1.80;;;0.70;;
19794;SDS011;10057;59.402;17.866;2022-11-20T07:10:35;1.23;;;0.60;;
19794;SDS011;10057;59.402;17.866;2022-11-20T07:13:02;1.67;;;0.67;;
19794;SDS011;10057;59.402;17.866;2022-11-20T07:15:29;1.50;;;0.70;;
19794;SDS011;10057;59.402;17.866;2022-11-20T07:17:58;2.80;;;0.80;;
19794;SDS011;10057;59.402;17.866;2022-11-20T07:20:26;1.00;;;0.70;;
19794;SDS011;10057;59.402;17.866;2022-11-20T07:22:56;1.77;;;0.80;;
19794;SDS011;10057;59.402;17.866;2022-11-20T07:25:24;0.60;;;0.47;;
19794;SDS011;10057;59.402;17.866;2022-11-20T07:27:51;5.43;;;0.80;;
19794;SDS011;10057;59.402;17.866;2022-11-20T07:30:18;1.47;;;0.80;;
19794;SDS011;10057;59.402;17.866;2022-11-20T07:32:51;1.43;;;0.80;;
19794;SDS011;10057;59.402;17.866;2022-11-20T07:35:19;1.17;;;0.70;;
19794;SDS011;10057;59.402;17.866;2022-11-20T07:37:46;1.13;;;0.57;;
19794;SDS011;10057;59.402;17.866;2022-11-20T07:40:13;1.23;;;0.67;;
19794;SDS011;10057;59.402;17.866;2022-11-20T07:42:55;1.77;;;0.70;;
19794;SDS011;10057;59.402;17.866;2022-11-20T07:45:22;0.93;;;0.70;;
19794;SDS011;10057;59.402;17.866;2022-11-20T07:47:51;1.00;;;0.67;;
19794;SDS011;10057;59.402;17.866;2022-11-20T07:50:20;0.73;;;0.67;;
19794;SDS011;10057;59.402;17.866;2022-11-20T07:52:59;1.40;;;0.80;;
19794;SDS011;10057;59.402;17.866;2022-11-20T07:55:28;1.20;;;0.80;;
19794;SDS011;10057;59.402;17.866;2022-11-20T07:57:56;2.10;;;0.60;;
19794;SDS011;10057;59.402;17.866;2022-11-20T08:00:27;1.20;;;0.50;;
19794;SDS011;10057;59.402;17.866;2022-11-20T08:02:54;1.73;;;0.70;;
19794;SDS011;10057;59.402;17.866;2022-11-20T08:05:20;1.13;;;0.73;;
19794;SDS011;10057;59.402;17.866;2022-11-20T08:07:47;1.77;;;0.80;;
19794;SDS011;10057;59.402;17.866;2022-11-20T08:10:14;0.93;;;0.43;;
19794;SDS011;10057;59.402;17.866;2022-11-20T08:12:45;2.07;;;0.60;;
19794;SDS011;10057;59.402;17.866;2022-11-20T08:15:32;1.20;;;0.60;;
19794;SDS011;10057;59.402;17.866;2022-11-20T08:18:00;1.33;;;0.50;;
19794;SDS011;10057;59.402;17.866;2022-11-20T08:20:47;1.77;;;0.83;;
19794;SDS011;10057;59.402;17.866;2022-11-20T08:23:14;1.40;;;0.70;;
19794;SDS011;10057;59.402;17.866;2022-11-20T08:25:41;0.80;;;0.57;;
19794;SDS011;10057;59.402;17.866;2022-11-20T08:28:08;1.10;;;0.57;;
19794;SDS011;10057;59.402;17.866;2022-11-20T08:30:46;0.80;;;0.60;;
19794;SDS011;10057;59.402;17.866;2022-11-20T08:33:13;1.23;;;0.73;;
19794;SDS011;10057;59.402;17.866;2022-11-20T08:35:43;1.80;;;0.80;;
19794;SDS011;10057;59.402;17.866;2022-11-20T08:38:10;2.77;;;0.70;;
19794;SDS011;10057;59.402;17.866;2022-11-20T08:40:36;2.20;;;0.70;;
19794;SDS011;10057;59.402;17.866;2022-11-20T08:43:03;2.10;;;0.70;;
19794;SDS011;10057;59.402;17.866;2022-11-20T08:45:30;2.30;;;0.90;;
19794;SDS011;10057;59.402;17.866;2022-11-20T08:48:00;2.20;;;0.83;;
19794;SDS011;10057;59.402;17.866;2022-11-20T08:50:30;0.97;;;0.70;;
19794;SDS011;10057;59.402;17.866;2022-11-20T08:53:02;1.00;;;0.60;;
19794;SDS011;10057;59.402;17.866;2022-11-20T08:55:32;1.30;;;0.60;;
19794;SDS011;10057;59.402;17.866;2022-11-20T08:58:04;1.03;;;0.53;;
19794;SDS011;10057;59.402;17.866;2022-11-20T09:00:32;1.40;;;0.70;;
19794;SDS011;10057;59.402;17.866;2022-11-20T09:03:00;2.63;;;0.77;;
19794;SDS011;10057;59.402;17.866;2022-11-20T09:05:27;2.33;;;1.17;;
19794;SDS011;10057;59.402;17.866;2022-11-20T09:07:57;3.30;;;1.03;;
19794;SDS011;10057;59.402;17.866;2022-11-20T09:10:25;3.13;;;1.00;;
19794;SDS011;10057;59.402;17.866;2022-11-20T09:12:55;1.50;;;0.87;;
19794;SDS011;10057;59.402;17.866;2022-11-20T09:15:22;1.93;;;1.00;;
19794;SDS011;10057;59.402;17.866;2022-11-20T09:17:51;1.50;;;0.93;;
19794;SDS011;10057;59.402;17.866;2022-11-20T09:20:17;0.80;;;0.60;;
19794;SDS011;10057;59.402;17.866;2022-11-20T09:22:44;1.37;;;0.80;;
19794;SDS011;10057;59.402;17.866;2022-11-20T09:25:11;2.40;;;1.30;;
19794;SDS011;10057;59.402;17.866;2022-11-20T09:27:38;2.67;;;1.10;;
19794;SDS011;10057;59.402;17.866;2022-11-20T09:30:05;2.47;;;0.90;;
19794;SDS011;10057;59.402;17.866;2022-11-20T09:32:32;6.53;;;1.30;;
19794;SDS011;10057;59.402;17.866;2022-11-20T09:34:59;2.37;;;1.03;;
19794;SDS011;10057;59.402;17.866;2022-11-20T09:37:30;2.13;;;0.90;;
19794;SDS011;10057;59.402;17.866;2022-11-20T09:39:57;2.50;;;1.10;;
19794;SDS011;10057;59.402;17.866;2022-11-20T09:50:23;1.83;;;0.80;;
19794;SDS011;10057;59.402;17.866;2022-11-20T09:53:16;1.10;;;0.80;;
19794;SDS011;10057;59.402;17.866;2022-11-20T09:55:46;1.40;;;0.80;;
19794;SDS011;10057;59.402;17.866;2022-11-20T09:58:31;1.17;;;0.90;;
19794;SDS011;10057;59.402;17.866;2022-11-20T10:01:26;1.80;;;0.93;;
19794;SDS011;10057;59.402;17.866;2022-11-20T10:03:59;1.03;;;0.63;;
19794;SDS011;10057;59.402;17.866;2022-11-20T10:06:31;1.47;;;0.70;;
19794;SDS011;10057;59.402;17.866;2022-11-20T10:09:39;2.03;;;1.10;;
19794;SDS011;10057;59.402;17.866;2022-11-20T10:12:22;1.40;;;0.70;;
19794;SDS011;10057;59.402;17.866;2022-11-20T10:15:11;2.00;;;0.70;;
19794;SDS011;10057;59.402;17.866;2022-11-20T10:26:16;2.03;;;0.60;;
19794;SDS011;10057;59.402;17.866;2022-11-20T10:28:48;4.83;;;1.13;;
19794;SDS011;10057;59.402;17.866;2022-11-20T10:32:13;1.90;;;0.80;;
19794;SDS011;10057;59.402;17.866;2022-11-20T10:34:40;2.17;;;0.80;;
19794;SDS011;10057;59.402;17.866;2022-11-20T10:37:23;2.90;;;0.60;;
19794;SDS011;10057;59.402;17.866;2022-11-20T10:43:03;3.13;;;0.80;;
19794;SDS011;10057;59.402;17.866;2022-11-20T10:48:24;1.13;;;0.70;;
19794;SDS011;10057;59.402;17.866;2022-11-20T10:56:31;0.87;;;0.67;;
19794;SDS011;10057;59.402;17.866;2022-11-20T11:01:57;5.20;;;0.93;;
19794;SDS011;10057;59.402;17.866;2022-11-20T11:06:57;2.43;;;0.90;;
19794;SDS011;10057;59.402;17.866;2022-11-20T11:09:49;1.00;;;0.60;;
19794;SDS011;10057;59.402;17.866;2022-11-20T11:12:18;1.23;;;0.80;;
19794;SDS011;10057;59.402;17.866;2022-11-20T11:14:53;2.17;;;0.80;;
19794;SDS011;10057;59.402;17.866;2022-11-20T11:17:31;1.97;;;0.70;;
19794;SDS011;10057;59.402;17.866;2022-11-20T11:20:04;4.30;;;0.97;;
19794;SDS011;10057;59.402;17.866;2022-11-20T11:22:50;1.73;;;0.77;;
19794;SDS011;10057;59.402;17.866;2022-11-20T11:25:29;1.10;;;0.77;;
19794;SDS011;10057;59.402;17.866;2022-11-20T11:28:01;4.03;;;0.70;;
19794;SDS011;10057;59.402;17.866;2022-11-20T11:30:46;1.10;;;0.70;;
19794;SDS011;10057;59.402;17.866;2022-11-20T11:33:24;1.13;;;0.87;;
19794;SDS011;10057;59.402;17.866;2022-11-20T11:36:03;4.50;;;0.80;;
19794;SDS011;10057;59.402;17.866;2022-11-20T11:38:42;0.97;;;0.53;;
19794;SDS011;10057;59.402;17.866;2022-11-20T11:41:17;1.80;;;0.70;;
19794;SDS011;10057;59.402;17.866;2022-11-20T11:43:56;1.63;;;0.70;;
19794;SDS011;10057;59.402;17.866;2022-11-20T11:47:00;3.73;;;1.10;;
19794;SDS011;10057;59.402;17.866;2022-11-20T11:49:28;2.63;;;0.80;;
19794;SDS011;10057;59.402;17.866;2022-11-20T11:51:59;5.07;;;0.80;;
19794;SDS011;10057;59.402;17.866;2022-11-20T11:57:01;1.37;;;0.80;;
19794;SDS011;10057;59.402;17.866;2022-11-20T12:00:17;1.07;;;0.70;;
19794;SDS011;10057;59.402;17.866;2022-11-20T12:05:05;1.27;;;0.63;;
19794;SDS011;10057;59.402;17.866;2022-11-20T12:07:47;1.13;;;0.80;;
19794;SDS011;10057;59.402;17.866;2022-11-20T12:13:01;1.93;;;0.90;;
19794;SDS011;10057;59.402;17.866;2022-11-20T12:15:32;2.57;;;0.70;;
19794;SDS011;10057;59.402;17.866;2022-11-20T12:18:00;2.57;;;0.87;;
19794;SDS011;10057;59.402;17.866;2022-11-20T12:20:29;1.20;;;0.83;;
19794;SDS011;10057;59.402;17.866;2022-11-20T12:23:09;2.10;;;1.20;;
19794;SDS011;10057;59.402;17.866;2022-11-20T12:25:47;2.20;;;0.90;;
19794;SDS011;10057;59.402;17.866;2022-11-20T12:28:26;1.57;;;0.70;;
19794;SDS011;10057;59.402;17.866;2022-11-20T12:50:13;1.00;;;0.67;;
19794;SDS011;10057;59.402;17.866;2022-11-20T12:53:31;0.80;;;0.60;;
19794;SDS011;10057;59.402;17.866;2022-11-20T13:01:52;1.20;;;0.70;;
19794;SDS011;10057;59.402;17.866;2022-11-20T13:07:04;0.80;;;0.70;;
19794;SDS011;10057;59.402;17.866;2022-11-20T13:09:42;1.27;;;0.70;;
19794;SDS011;10057;59.402;17.866;2022-11-20T13:12:22;1.73;;;0.70;;
19794;SDS011;10057;59.402;17.866;2022-11-20T13:17:51;1.70;;;0.70;;
19794;SDS011;10057;59.402;17.866;2022-11-20T13:20:21;1.23;;;0.70;;
19794;SDS011;10057;59.402;17.866;2022-11-20T13:22:51;1.67;;;0.80;;
19794;SDS011;10057;59.402;17.866;2022-11-20T13:25:30;1.20;;;0.90;;
19794;SDS011;10057;59.402;17.866;2022-11-20T13:27:59;3.53;;;0.70;;
19794;SDS011;10057;59.402;17.866;2022-11-20T13:30:35;2.43;;;1.00;;
19794;SDS011;10057;59.402;17.866;2022-11-20T13:33:08;1.87;;;1.00;;
19794;SDS011;10057;59.402;17.866;2022-11-20T13:35:56;1.50;;;0.87;;
19794;SDS011;10057;59.402;17.866;2022-11-20T13:38:26;3.00;;;1.00;;
19794;SDS011;10057;59.402;17.866;2022-11-20T13:40:59;1.90;;;0.97;;
19794;SDS011;10057;59.402;17.866;2022-11-20T13:43:47;2.57;;;0.70;;
19794;SDS011;10057;59.402;17.866;2022-11-20T13:46:14;3.40;;;1.20;;
19794;SDS011;10057;59.402;17.866;2022-11-20T13:48:45;1.90;;;0.77;;
19794;SDS011;10057;59.402;17.866;2022-11-20T13:59:44;2.70;;;1.20;;
19794;SDS011;10057;59.402;17.866;2022-11-20T14:02:19;2.00;;;1.00;;
19794;SDS011;10057;59.402;17.866;2022-11-20T14:04:48;3.53;;;1.10;;
19794;SDS011;10057;59.402;17.866;2022-11-20T14:07:18;2.50;;;1.33;;
19794;SDS011;10057;59.402;17.866;2022-11-20T14:09:52;2.00;;;1.10;;
19794;SDS011;10057;59.402;17.866;2022-11-20T14:12:21;1.17;;;1.00;;
19794;SDS011;10057;59.402;17.866;2022-11-20T14:14:55;4.33;;;1.20;;
19794;SDS011;10057;59.402;17.866;2022-11-20T14:19:55;3.13;;;1.30;;
19794;SDS011;10057;59.402;17.866;2022-11-20T14:22:31;2.83;;;1.20;;
19794;SDS011;10057;59.402;17.866;2022-11-20T14:27:55;2.20;;;1.30;;
19794;SDS011;10057;59.402;17.866;2022-11-20T14:30:27;3.97;;;1.47;;
19794;SDS011;10057;59.402;17.866;2022-11-20T14:33:03;3.63;;;1.40;;
19794;SDS011;10057;59.402;17.866;2022-11-20T14:35:33;6.90;;;1.30;;
19794;SDS011;10057;59.402;17.866;2022-11-20T14:38:03;2.73;;;1.27;;
19794;SDS011;10057;59.402;17.866;2022-11-20T14:40:31;2.70;;;1.20;;
19794;SDS011;10057;59.402;17.866;2022-11-20T14:43:02;3.93;;;1.20;;
19794;SDS011;10057;59.402;17.866;2022-11-20T14:45:44;2.30;;;1.20;;
19794;SDS011;10057;59.402;17.866;2022-11-20T14:48:15;4.83;;;1.00;;
19794;SDS011;10057;59.402;17.866;2022-11-20T14:50:42;2.53;;;1.10;;
19794;SDS011;10057;59.402;17.866;2022-11-20T14:53:08;2.90;;;0.87;;
19794;SDS011;10057;59.402;17.866;2022-11-20T14:55:36;1.63;;;0.70;;
19794;SDS011;10057;59.402;17.866;2022-11-20T14:58:05;5.73;;;1.40;;
19794;SDS011;10057;59.402;17.866;2022-11-20T15:01:02;1.80;;;1.00;;
19794;SDS011;10057;59.402;17.866;2022-11-20T15:03:35;2.87;;;1.10;;
19794;SDS011;10057;59.402;17.866;2022-11-20T15:06:07;2.37;;;0.93;;
19794;SDS011;10057;59.402;17.866;2022-11-20T15:08:38;1.77;;;1.00;;
19794;SDS011;10057;59.402;17.866;2022-11-20T15:11:14;4.53;;;1.10;;
19794;SDS011;10057;59.402;17.866;2022-11-20T15:13:44;1.87;;;0.97;;
19794;SDS011;10057;59.402;17.866;2022-11-20T15:16:18;2.37;;;1.27;;
19794;SDS011;10057;59.402;17.866;2022-11-20T15:18:47;3.17;;;1.20;;
19794;SDS011;10057;59.402;17.866;2022-11-20T15:21:15;2.70;;;1.00;;
19794;SDS011;10057;59.402;17.866;2022-11-20T15:23:45;2.00;;;1.00;;
19794;SDS011;10057;59.402;17.866;2022-11-20T15:26:13;1.97;;;0.97;;
19794;SDS011;10057;59.402;17.866;2022-11-20T15:28:46;1.93;;;1.00;;
19794;SDS011;10057;59.402;17.866;2022-11-20T15:31:17;1.93;;;1.30;;
19794;SDS011;10057;59.402;17.866;2022-11-20T15:33:46;2.53;;;1.53;;
19794;SDS011;10057;59.402;17.866;2022-11-20T15:36:13;2.20;;;1.20;;
19794;SDS011;10057;59.402;17.866;2022-11-20T15:38:40;2.03;;;1.17;;
19794;SDS011;10057;59.402;17.866;2022-11-20T15:41:07;3.77;;;1.40;;
19794;SDS011;10057;59.402;17.866;2022-11-20T15:43:34;4.03;;;1.27;;
19794;SDS011;10057;59.402;17.866;2022-11-20T15:46:23;2.60;;;1.00;;
19794;SDS011;10057;59.402;17.866;2022-11-20T15:48:56;2.30;;;1.20;;
19794;SDS011;10057;59.402;17.866;2022-11-20T15:54:13;3.70;;;1.50;;
19794;SDS011;10057;59.402;17.866;2022-11-20T15:56:47;4.37;;;1.50;;
19794;SDS011;10057;59.402;17.866;2022-11-20T15:59:15;2.43;;;1.27;;
19794;SDS011;10057;59.402;17.866;2022-11-20T16:01:41;3.53;;;1.20;;
19794;SDS011;10057;59.402;17.866;2022-11-20T16:04:13;2.33;;;1.03;;
19794;SDS011;10057;59.402;17.866;2022-11-20T16:06:41;2.67;;;1.27;;
19794;SDS011;10057;59.402;17.866;2022-11-20T16:09:08;2.77;;;1.10;;
19794;SDS011;10057;59.402;17.866;2022-11-20T16:11:35;3.10;;;1.60;;
19794;SDS011;10057;59.402;17.866;2022-11-20T16:14:03;2.40;;;1.37;;
19794;SDS011;10057;59.402;17.866;2022-11-20T16:16:49;2.00;;;0.90;;
19794;SDS011;10057;59.402;17.866;2022-11-20T16:19:17;4.47;;;1.50;;
19794;SDS011;10057;59.402;17.866;2022-11-20T16:21:44;2.17;;;1.17;;
19794;SDS011;10057;59.402;17.866;2022-11-20T16:24:13;2.97;;;1.27;;
19794;SDS011;10057;59.402;17.866;2022-11-20T16:26:40;2.93;;;1.33;;
19794;SDS011;10057;59.402;17.866;2022-11-20T16:29:08;1.50;;;1.07;;
19794;SDS011;10057;59.402;17.866;2022-11-20T16:31:36;2.63;;;1.20;;